TimeCST,TemperatureF,Dew PointF,Humidity,Sea Level PressureIn,VisibilityMPH,Wind Direction,Wind SpeedMPH,Gust SpeedMPH,PrecipitationIn,Events,Conditions,WindDirDegrees,DateUTC
12:15 AM,27.5,18.9,70,30.26,10.0,SSW,6.9,-,N/A,,Overcast,200,2013-12-31 06:15:00
12:35 AM,28.2,19.2,69,30.27,10.0,SW,10.4,-,N/A,,Overcast,220,2013-12-31 06:35:00
12:55 AM,28.2,19.0,68,30.27,10.0,SW,12.7,-,N/A,,Overcast,220,2013-12-31 06:55:00
1:15 AM,27.5,19.4,72,30.26,10.0,SSW,9.2,-,N/A,,Scattered Clouds,210,2013-12-31 07:15:00
1:35 AM,27.3,18.9,70,30.27,10.0,SW,8.1,-,N/A,,Clear,220,2013-12-31 07:35:00
1:55 AM,27.1,18.7,70,30.27,10.0,SW,8.1,-,N/A,,Clear,220,2013-12-31 07:55:00
2:15 AM,27.0,18.9,72,30.27,10.0,SW,9.2,-,N/A,,Clear,230,2013-12-31 08:15:00
2:35 AM,26.6,19.0,73,30.27,10.0,SW,10.4,-,N/A,,Clear,230,2013-12-31 08:35:00
2:55 AM,26.4,19.4,75,30.27,10.0,SW,6.9,-,N/A,,Clear,230,2013-12-31 08:55:00
3:15 AM,26.6,19.6,75,30.27,10.0,SW,8.1,-,N/A,,Mostly Cloudy,220,2013-12-31 09:15:00
3:35 AM,27.5,20.3,74,30.26,10.0,SW,9.2,-,N/A,,Overcast,220,2013-12-31 09:35:00
3:55 AM,27.7,19.6,72,30.27,10.0,SW,9.2,-,N/A,,Overcast,220,2013-12-31 09:55:00
4:15 AM,27.1,19.4,73,30.29,10.0,SW,11.5,-,N/A,,Mostly Cloudy,220,2013-12-31 10:15:00
4:35 AM,26.6,19.6,75,30.30,10.0,SW,10.4,-,N/A,,Scattered Clouds,230,2013-12-31 10:35:00
4:55 AM,25.9,19.4,76,30.31,10.0,SW,8.1,-,N/A,,Clear,230,2013-12-31 10:55:00
5:15 AM,26.2,19.9,77,30.32,10.0,WSW,8.1,-,N/A,,Clear,240,2013-12-31 11:15:00
5:35 AM,26.1,20.1,78,30.33,10.0,SW,8.1,-,N/A,,Clear,230,2013-12-31 11:35:00
5:55 AM,26.2,20.1,78,30.34,10.0,WSW,6.9,-,N/A,,Scattered Clouds,240,2013-12-31 11:55:00
6:15 AM,26.2,20.1,78,30.35,10.0,SW,6.9,-,N/A,,Scattered Clouds,230,2013-12-31 12:15:00
6:35 AM,25.7,19.9,79,30.36,10.0,SW,8.1,-,N/A,,Clear,220,2013-12-31 12:35:00
6:55 AM,25.3,20.1,81,30.36,10.0,SW,8.1,-,N/A,,Clear,220,2013-12-31 12:55:00
7:15 AM,24.8,19.8,81,30.35,10.0,SSW,4.6,-,N/A,,Clear,210,2013-12-31 13:15:00
7:35 AM,25.2,20.1,81,30.36,10.0,SW,4.6,-,N/A,,Clear,220,2013-12-31 13:35:00
7:55 AM,26.2,21.2,81,30.38,10.0,WSW,3.5,-,N/A,,Clear,250,2013-12-31 13:55:00
8:15 AM,27.5,21.6,78,30.38,10.0,SW,5.8,-,N/A,,Clear,230,2013-12-31 14:15:00
8:35 AM,29.3,21.6,73,30.40,10.0,WSW,5.8,-,N/A,,Clear,250,2013-12-31 14:35:00
8:55 AM,31.1,21.6,68,30.41,10.0,West,9.2,-,N/A,,Clear,260,2013-12-31 14:55:00
9:15 AM,32.0,21.2,64,30.42,10.0,West,10.4,-,N/A,,Clear,270,2013-12-31 15:15:00
9:35 AM,32.2,21.6,65,30.43,10.0,West,9.2,-,N/A,,Clear,280,2013-12-31 15:35:00
9:55 AM,32.5,21.6,64,30.44,10.0,West,9.2,-,N/A,,Clear,280,2013-12-31 15:55:00
10:15 AM,33.6,21.7,62,30.44,10.0,WNW,6.9,-,N/A,,Clear,300,2013-12-31 16:15:00
10:35 AM,34.2,21.7,60,30.44,10.0,WNW,5.8,-,N/A,,Clear,300,2013-12-31 16:35:00
10:55 AM,34.5,21.9,60,30.43,10.0,NW,8.1,-,N/A,,Clear,310,2013-12-31 16:55:00
11:15 AM,35.6,21.9,58,30.41,10.0,Calm,Calm,-,N/A,,Clear,0,2013-12-31 17:15:00
11:35 AM,35.4,22.5,59,30.41,10.0,Calm,Calm,-,N/A,,Clear,0,2013-12-31 17:35:00
11:55 AM,36.5,22.3,56,30.39,10.0,Calm,Calm,-,N/A,,Clear,0,2013-12-31 17:55:00
12:15 PM,36.5,22.8,58,30.39,10.0,SW,3.5,-,N/A,,Clear,230,2013-12-31 18:15:00
12:35 PM,37.4,23.5,57,30.38,10.0,Calm,Calm,-,N/A,,Clear,0,2013-12-31 18:35:00
12:55 PM,38.5,23.7,55,30.37,10.0,Calm,Calm,-,N/A,,Clear,0,2013-12-31 18:55:00
1:15 PM,37.9,24.6,59,30.36,10.0,Calm,Calm,-,N/A,,Clear,0,2013-12-31 19:15:00
1:35 PM,38.7,25.5,59,30.35,10.0,SSE,8.1,-,N/A,,Clear,160,2013-12-31 19:35:00
1:55 PM,38.7,25.7,60,30.34,10.0,SSE,8.1,-,N/A,,Clear,160,2013-12-31 19:55:00
2:15 PM,38.5,26.1,61,30.34,10.0,SSE,9.2,-,N/A,,Clear,160,2013-12-31 20:15:00
2:35 PM,38.5,27.0,63,30.32,10.0,SSE,9.2,-,N/A,,Clear,160,2013-12-31 20:35:00
2:55 PM,38.7,27.1,63,30.32,10.0,SSE,10.4,-,N/A,,Clear,150,2013-12-31 20:55:00
3:15 PM,38.1,27.0,64,30.31,10.0,SE,11.5,-,N/A,,Clear,140,2013-12-31 21:15:00
3:35 PM,37.4,26.6,65,30.30,10.0,SSE,9.2,-,N/A,,Clear,160,2013-12-31 21:35:00
3:55 PM,37.2,28.0,69,30.30,10.0,SSE,6.9,-,N/A,,Clear,160,2013-12-31 21:55:00
4:15 PM,35.6,28.4,75,30.31,10.0,SSE,5.8,-,N/A,,Clear,160,2013-12-31 22:15:00
4:35 PM,34.5,29.1,81,30.30,10.0,SSE,5.8,-,N/A,,Clear,150,2013-12-31 22:35:00
4:55 PM,34.7,28.9,79,30.30,10.0,SSE,8.1,-,N/A,,Clear,150,2013-12-31 22:55:00
5:15 PM,34.9,29.3,80,30.29,10.0,SSE,9.2,-,N/A,,Clear,160,2013-12-31 23:15:00
5:35 PM,34.5,28.6,79,30.28,10.0,SSE,8.1,-,N/A,,Clear,150,2013-12-31 23:35:00
5:55 PM,33.8,28.9,82,30.29,10.0,SSE,8.1,-,N/A,,Clear,160,2013-12-31 23:55:00
6:15 PM,33.3,29.1,85,30.29,10.0,SSE,6.9,-,N/A,,Clear,150,2014-01-01 00:15:00
6:35 PM,33.3,29.1,85,30.29,10.0,SSE,8.1,-,N/A,,Clear,160,2014-01-01 00:35:00
6:55 PM,32.9,29.3,87,30.29,10.0,South,5.8,-,N/A,,Clear,180,2014-01-01 00:55:00
7:15 PM,33.6,29.7,85,30.30,10.0,South,6.9,-,N/A,,Clear,170,2014-01-01 01:15:00
7:35 PM,34.3,29.3,82,30.30,10.0,South,9.2,-,N/A,,Clear,170,2014-01-01 01:35:00
7:55 PM,34.3,29.3,82,30.29,10.0,South,9.2,-,N/A,,Clear,170,2014-01-01 01:55:00
8:15 PM,34.7,29.1,80,30.28,10.0,South,11.5,-,N/A,,Clear,180,2014-01-01 02:15:00
8:35 PM,34.7,29.3,81,30.28,10.0,South,10.4,-,N/A,,Clear,190,2014-01-01 02:35:00
8:55 PM,34.9,29.7,81,30.28,10.0,South,10.4,-,N/A,,Clear,190,2014-01-01 02:55:00
9:15 PM,36.5,28.9,74,30.27,10.0,South,13.8,-,N/A,,Clear,190,2014-01-01 03:15:00
9:35 PM,36.5,29.3,75,30.27,10.0,South,13.8,-,N/A,,Clear,190,2014-01-01 03:35:00
9:55 PM,36.5,29.3,75,30.27,10.0,South,12.7,-,N/A,,Clear,190,2014-01-01 03:55:00
10:15 PM,36.5,29.3,75,30.27,10.0,South,11.5,-,N/A,,Clear,190,2014-01-01 04:15:00
10:35 PM,36.9,29.3,74,30.27,10.0,South,13.8,-,N/A,,Clear,190,2014-01-01 04:35:00
10:55 PM,37.2,29.3,73,30.27,10.0,SSW,13.8,-,N/A,,Clear,200,2014-01-01 04:55:00
11:15 PM,37.2,29.3,73,30.27,10.0,SSW,13.8,-,N/A,,Clear,200,2014-01-01 05:15:00
11:35 PM,37.4,29.5,73,30.27,10.0,SSW,8.1,-,N/A,,Clear,210,2014-01-01 05:35:00
11:55 PM,37.6,29.7,73,30.27,10.0,SSW,10.4,-,N/A,,Clear,210,2014-01-01 05:55:00